Saint-Hyacinthe, Canada
Current Conditions -  °F | °C
As of 8:00 PM on Monday 20 Oct 2014 (Local Time) from CYHU Reporting Station
Overcast Overcast  
Wind Chill:   Ceiling: 6500
Heat Index:   Visibility: 9mi
Dew Point:   Wind: 5mph
Humidity: 87%   Direction: 100°E
Pressure: 29.95"   Gusts: NA
Location:  45.62°N, 72.95°W
Report Text: CYHU 210000Z AUTO 10004KT 9SM OVC065 05/03 A2995 RMK TS/LTNG TEMPO UNAVBL SLP143
Loading
Personal Weather Stations






























Interactive Weather Map
Tropical Storm Tracking
New forecast layout! Learn more

10-Day Weather Forecast

Advertisements
Track Severe Weather on mobile